Portada
METAR-TAF:

METAR-TAF

Aeroports :

Timimoun, Algèria

latitud: 29-15N, longitud: 000-17E, altitud: 312 m

Observació

L'informe es va fer fa 44 minuts, a les 21:00 UTC
Vent 3 kt del Est
Temperatura 14°C
Humitat 33%
Pressió 1015 hPa
Visibilitat 10 km o més
sense núvols per sota de 1500 mi sense presència de cumulonimbus.

METAR: DAUT 052100Z 08003KT CAVOK 14/M02 Q1015

Hora: 22:44 (21:44 UTC)

Pronòstic

L'informe es va fer fa 1 hora i 44 minuts, a les 20:00 UTC
Pronòstic vàlid del 05 a les 21 UTC al 06 a les 06 UTC
Vent 5 kt del Nord/Nord-Est
Visibilitat 10 km o més
sense núvols per sota de 1500 mi sense presència de cumulonimbus.

TAF: DAUT 052000Z 0521/0606 02005KT CAVOK

Observacions i pronòstics meteorològics de més de 4000 aeroports (METAR i TAF).

Les estacions disponibles són els punts grocs i vermells al mapa.

Posi el ratolí al punt desitjat per veure el nom de l'estació.

Feu clic per veure les observacions i els pronòstics meteorològics.

Per canviar el mapa: feu clic els botons verds amb una creu de color negre per apropar; al botó verd amb un guió per allunyar la imatge; o en les fletxes verdes per a mapes adjacents.


METAR-TAF: